sensor_id;sensor_type;location;lat;lon;timestamp;P1;durP1;ratioP1;P2;durP2;ratioP2
2792;SDS011;1404;49.650;8.574;2022-08-03T00:01:42;4.23;;;3.37;;
2792;SDS011;1404;49.650;8.574;2022-08-03T00:04:09;6.00;;;3.17;;
2792;SDS011;1404;49.650;8.574;2022-08-03T00:06:36;6.33;;;3.17;;
2792;SDS011;1404;49.650;8.574;2022-08-03T00:09:02;7.10;;;3.80;;
2792;SDS011;1404;49.650;8.574;2022-08-03T00:11:28;4.23;;;3.67;;
2792;SDS011;1404;49.650;8.574;2022-08-03T00:13:54;5.77;;;4.13;;
2792;SDS011;1404;49.650;8.574;2022-08-03T00:16:20;17.97;;;5.73;;
2792;SDS011;1404;49.650;8.574;2022-08-03T00:18:46;7.40;;;3.20;;
2792;SDS011;1404;49.650;8.574;2022-08-03T00:21:12;5.03;;;2.90;;
2792;SDS011;1404;49.650;8.574;2022-08-03T00:23:38;3.53;;;3.23;;
2792;SDS011;1404;49.650;8.574;2022-08-03T00:26:04;6.97;;;3.37;;
2792;SDS011;1404;49.650;8.574;2022-08-03T00:28:30;3.40;;;3.10;;
2792;SDS011;1404;49.650;8.574;2022-08-03T00:30:56;3.53;;;2.80;;
2792;SDS011;1404;49.650;8.574;2022-08-03T00:33:22;3.40;;;3.10;;
2792;SDS011;1404;49.650;8.574;2022-08-03T00:35:48;3.50;;;3.20;;
2792;SDS011;1404;49.650;8.574;2022-08-03T00:38:14;5.23;;;3.30;;
2792;SDS011;1404;49.650;8.574;2022-08-03T00:40:40;4.77;;;3.27;;
2792;SDS011;1404;49.650;8.574;2022-08-03T00:43:06;3.90;;;3.60;;
2792;SDS011;1404;49.650;8.574;2022-08-03T00:45:36;5.63;;;4.50;;
2792;SDS011;1404;49.650;8.574;2022-08-03T00:48:04;4.90;;;3.53;;
2792;SDS011;1404;49.650;8.574;2022-08-03T00:50:31;4.37;;;3.97;;
2792;SDS011;1404;49.650;8.574;2022-08-03T00:53:02;7.63;;;3.10;;
2792;SDS011;1404;49.650;8.574;2022-08-03T00:55:29;5.10;;;3.43;;
2792;SDS011;1404;49.650;8.574;2022-08-03T00:57:55;5.87;;;3.43;;
2792;SDS011;1404;49.650;8.574;2022-08-03T01:00:23;4.40;;;4.00;;
2792;SDS011;1404;49.650;8.574;2022-08-03T01:02:50;4.13;;;3.60;;
2792;SDS011;1404;49.650;8.574;2022-08-03T01:05:16;4.53;;;3.93;;
2792;SDS011;1404;49.650;8.574;2022-08-03T01:10:33;5.10;;;3.80;;
2792;SDS011;1404;49.650;8.574;2022-08-03T01:13:24;4.47;;;3.87;;
2792;SDS011;1404;49.650;8.574;2022-08-03T01:20:54;9.30;;;4.47;;
2792;SDS011;1404;49.650;8.574;2022-08-03T01:31:10;7.73;;;3.60;;
2792;SDS011;1404;49.650;8.574;2022-08-03T01:33:38;7.10;;;3.63;;
2792;SDS011;1404;49.650;8.574;2022-08-03T01:36:09;4.43;;;3.93;;
2792;SDS011;1404;49.650;8.574;2022-08-03T01:38:40;6.73;;;3.70;;
2792;SDS011;1404;49.650;8.574;2022-08-03T01:41:09;8.50;;;3.70;;
2792;SDS011;1404;49.650;8.574;2022-08-03T01:43:36;5.37;;;4.13;;
2792;SDS011;1404;49.650;8.574;2022-08-03T01:46:04;5.10;;;3.17;;
2792;SDS011;1404;49.650;8.574;2022-08-03T01:48:32;3.83;;;3.50;;
2792;SDS011;1404;49.650;8.574;2022-08-03T01:50:58;5.00;;;3.80;;
2792;SDS011;1404;49.650;8.574;2022-08-03T01:53:24;4.33;;;3.53;;
2792;SDS011;1404;49.650;8.574;2022-08-03T01:55:51;3.10;;;2.90;;
2792;SDS011;1404;49.650;8.574;2022-08-03T01:58:18;3.77;;;3.47;;
2792;SDS011;1404;49.650;8.574;2022-08-03T02:00:45;5.23;;;3.77;;
2792;SDS011;1404;49.650;8.574;2022-08-03T02:03:13;3.57;;;3.30;;
2792;SDS011;1404;49.650;8.574;2022-08-03T02:05:39;4.20;;;3.80;;
2792;SDS011;1404;49.650;8.574;2022-08-03T02:08:06;7.47;;;3.60;;
2792;SDS011;1404;49.650;8.574;2022-08-03T02:10:34;6.80;;;4.07;;
2792;SDS011;1404;49.650;8.574;2022-08-03T02:13:00;4.87;;;3.90;;
2792;SDS011;1404;49.650;8.574;2022-08-03T02:15:27;3.60;;;3.30;;
2792;SDS011;1404;49.650;8.574;2022-08-03T02:17:54;4.80;;;4.20;;
2792;SDS011;1404;49.650;8.574;2022-08-03T02:20:21;4.37;;;3.70;;
2792;SDS011;1404;49.650;8.574;2022-08-03T02:22:47;4.03;;;3.63;;
2792;SDS011;1404;49.650;8.574;2022-08-03T02:25:14;4.70;;;3.73;;
2792;SDS011;1404;49.650;8.574;2022-08-03T02:27:42;4.30;;;3.90;;
2792;SDS011;1404;49.650;8.574;2022-08-03T02:30:11;6.10;;;4.67;;
2792;SDS011;1404;49.650;8.574;2022-08-03T02:32:39;5.00;;;4.50;;
2792;SDS011;1404;49.650;8.574;2022-08-03T02:35:05;10.00;;;4.40;;
2792;SDS011;1404;49.650;8.574;2022-08-03T02:37:35;5.17;;;4.77;;
2792;SDS011;1404;49.650;8.574;2022-08-03T02:40:03;8.37;;;4.60;;
2792;SDS011;1404;49.650;8.574;2022-08-03T02:42:31;5.13;;;4.33;;
2792;SDS011;1404;49.650;8.574;2022-08-03T02:44:58;5.13;;;4.73;;
2792;SDS011;1404;49.650;8.574;2022-08-03T02:47:25;4.60;;;4.20;;
2792;SDS011;1404;49.650;8.574;2022-08-03T02:49:53;4.90;;;4.50;;
2792;SDS011;1404;49.650;8.574;2022-08-03T02:52:20;5.47;;;4.90;;
2792;SDS011;1404;49.650;8.574;2022-08-03T02:54:48;5.20;;;4.23;;
2792;SDS011;1404;49.650;8.574;2022-08-03T02:57:15;5.13;;;4.73;;
2792;SDS011;1404;49.650;8.574;2022-08-03T02:59:43;7.53;;;4.07;;
2792;SDS011;1404;49.650;8.574;2022-08-03T03:02:09;7.30;;;5.30;;
2792;SDS011;1404;49.650;8.574;2022-08-03T03:04:36;5.13;;;4.67;;
2792;SDS011;1404;49.650;8.574;2022-08-03T03:07:03;4.60;;;4.20;;
2792;SDS011;1404;49.650;8.574;2022-08-03T03:09:30;5.60;;;4.60;;
2792;SDS011;1404;49.650;8.574;2022-08-03T03:11:56;5.10;;;4.70;;
2792;SDS011;1404;49.650;8.574;2022-08-03T03:14:22;4.50;;;4.20;;
2792;SDS011;1404;49.650;8.574;2022-08-03T03:16:48;4.80;;;4.40;;
2792;SDS011;1404;49.650;8.574;2022-08-03T03:19:16;5.17;;;4.37;;
2792;SDS011;1404;49.650;8.574;2022-08-03T03:21:43;5.23;;;4.00;;
2792;SDS011;1404;49.650;8.574;2022-08-03T03:24:09;4.87;;;4.47;;
2792;SDS011;1404;49.650;8.574;2022-08-03T03:26:36;4.50;;;4.10;;
2792;SDS011;1404;49.650;8.574;2022-08-03T03:29:02;4.60;;;4.20;;
2792;SDS011;1404;49.650;8.574;2022-08-03T03:31:29;5.50;;;4.67;;
2792;SDS011;1404;49.650;8.574;2022-08-03T03:33:56;6.70;;;4.40;;
2792;SDS011;1404;49.650;8.574;2022-08-03T03:36:22;7.47;;;4.03;;
2792;SDS011;1404;49.650;8.574;2022-08-03T03:38:48;5.77;;;5.10;;
2792;SDS011;1404;49.650;8.574;2022-08-03T03:41:15;6.60;;;3.93;;
2792;SDS011;1404;49.650;8.574;2022-08-03T03:43:41;4.90;;;4.43;;
2792;SDS011;1404;49.650;8.574;2022-08-03T03:46:07;7.00;;;4.73;;
2792;SDS011;1404;49.650;8.574;2022-08-03T03:48:37;8.83;;;5.53;;
2792;SDS011;1404;49.650;8.574;2022-08-03T03:51:03;6.33;;;5.03;;
2792;SDS011;1404;49.650;8.574;2022-08-03T03:53:30;4.80;;;4.40;;
2792;SDS011;1404;49.650;8.574;2022-08-03T03:55:56;4.63;;;4.03;;
2792;SDS011;1404;49.650;8.574;2022-08-03T03:58:22;4.67;;;4.23;;
2792;SDS011;1404;49.650;8.574;2022-08-03T04:00:48;5.50;;;3.77;;
2792;SDS011;1404;49.650;8.574;2022-08-03T04:03:14;10.43;;;4.57;;
2792;SDS011;1404;49.650;8.574;2022-08-03T04:05:40;6.07;;;4.63;;
2792;SDS011;1404;49.650;8.574;2022-08-03T04:08:25;5.80;;;4.90;;
2792;SDS011;1404;49.650;8.574;2022-08-03T04:13:36;5.33;;;4.77;;
2792;SDS011;1404;49.650;8.574;2022-08-03T04:16:03;5.57;;;5.07;;
2792;SDS011;1404;49.650;8.574;2022-08-03T04:18:30;6.77;;;4.80;;
2792;SDS011;1404;49.650;8.574;2022-08-03T04:20:57;7.40;;;5.23;;
2792;SDS011;1404;49.650;8.574;2022-08-03T04:23:24;6.07;;;5.17;;
2792;SDS011;1404;49.650;8.574;2022-08-03T04:25:51;11.43;;;6.00;;
2792;SDS011;1404;49.650;8.574;2022-08-03T04:28:19;6.77;;;5.10;;
2792;SDS011;1404;49.650;8.574;2022-08-03T04:30:46;5.60;;;4.73;;
2792;SDS011;1404;49.650;8.574;2022-08-03T04:33:15;12.00;;;4.37;;
2792;SDS011;1404;49.650;8.574;2022-08-03T04:35:42;8.33;;;5.80;;
2792;SDS011;1404;49.650;8.574;2022-08-03T04:38:08;7.03;;;4.70;;
2792;SDS011;1404;49.650;8.574;2022-08-03T04:40:38;11.63;;;5.13;;
2792;SDS011;1404;49.650;8.574;2022-08-03T04:43:04;7.03;;;4.57;;
2792;SDS011;1404;49.650;8.574;2022-08-03T04:45:32;5.60;;;4.20;;
2792;SDS011;1404;49.650;8.574;2022-08-03T04:47:59;6.67;;;5.10;;
2792;SDS011;1404;49.650;8.574;2022-08-03T04:50:25;7.93;;;4.50;;
2792;SDS011;1404;49.650;8.574;2022-08-03T04:52:52;4.57;;;4.17;;
2792;SDS011;1404;49.650;8.574;2022-08-03T04:55:25;10.43;;;4.20;;
2792;SDS011;1404;49.650;8.574;2022-08-03T04:57:51;7.17;;;4.30;;
2792;SDS011;1404;49.650;8.574;2022-08-03T05:00:17;3.77;;;3.47;;
2792;SDS011;1404;49.650;8.574;2022-08-03T05:02:43;5.80;;;3.90;;
2792;SDS011;1404;49.650;8.574;2022-08-03T05:05:09;12.00;;;4.60;;
2792;SDS011;1404;49.650;8.574;2022-08-03T05:07:36;6.60;;;4.73;;
2792;SDS011;1404;49.650;8.574;2022-08-03T05:10:03;6.33;;;4.27;;
2792;SDS011;1404;49.650;8.574;2022-08-03T05:12:29;11.43;;;4.30;;
2792;SDS011;1404;49.650;8.574;2022-08-03T05:14:55;5.07;;;3.60;;
2792;SDS011;1404;49.650;8.574;2022-08-03T05:17:21;7.37;;;4.10;;
2792;SDS011;1404;49.650;8.574;2022-08-03T05:19:47;7.53;;;4.93;;
2792;SDS011;1404;49.650;8.574;2022-08-03T05:22:13;3.97;;;3.60;;
2792;SDS011;1404;49.650;8.574;2022-08-03T05:24:39;5.20;;;4.00;;
2792;SDS011;1404;49.650;8.574;2022-08-03T05:27:05;5.30;;;4.37;;
2792;SDS011;1404;49.650;8.574;2022-08-03T05:29:31;4.70;;;4.30;;
2792;SDS011;1404;49.650;8.574;2022-08-03T05:31:57;5.03;;;4.40;;
2792;SDS011;1404;49.650;8.574;2022-08-03T05:34:23;5.30;;;4.07;;
2792;SDS011;1404;49.650;8.574;2022-08-03T05:36:49;6.67;;;4.50;;
2792;SDS011;1404;49.650;8.574;2022-08-03T05:39:15;7.43;;;4.27;;
2792;SDS011;1404;49.650;8.574;2022-08-03T05:41:41;7.07;;;4.20;;
2792;SDS011;1404;49.650;8.574;2022-08-03T05:44:07;6.40;;;3.80;;
2792;SDS011;1404;49.650;8.574;2022-08-03T05:46:33;5.90;;;4.00;;
2792;SDS011;1404;49.650;8.574;2022-08-03T05:48:59;5.70;;;5.17;;
2792;SDS011;1404;49.650;8.574;2022-08-03T05:51:25;6.47;;;4.20;;
2792;SDS011;1404;49.650;8.574;2022-08-03T05:53:52;6.20;;;4.23;;
2792;SDS011;1404;49.650;8.574;2022-08-03T05:56:22;7.00;;;4.90;;
2792;SDS011;1404;49.650;8.574;2022-08-03T05:58:51;8.30;;;5.40;;
2792;SDS011;1404;49.650;8.574;2022-08-03T06:01:17;4.77;;;3.90;;
2792;SDS011;1404;49.650;8.574;2022-08-03T06:03:46;5.43;;;4.73;;
2792;SDS011;1404;49.650;8.574;2022-08-03T06:06:12;6.03;;;4.50;;
2792;SDS011;1404;49.650;8.574;2022-08-03T06:08:39;5.67;;;4.60;;
2792;SDS011;1404;49.650;8.574;2022-08-03T06:11:05;8.63;;;6.60;;
2792;SDS011;1404;49.650;8.574;2022-08-03T06:13:31;9.07;;;5.30;;
2792;SDS011;1404;49.650;8.574;2022-08-03T06:15:57;9.77;;;6.53;;
2792;SDS011;1404;49.650;8.574;2022-08-03T06:18:23;5.83;;;5.10;;
2792;SDS011;1404;49.650;8.574;2022-08-03T06:20:50;5.97;;;4.70;;
2792;SDS011;1404;49.650;8.574;2022-08-03T06:23:16;8.40;;;5.97;;
2792;SDS011;1404;49.650;8.574;2022-08-03T06:25:42;13.63;;;5.57;;
2792;SDS011;1404;49.650;8.574;2022-08-03T06:28:08;7.60;;;6.60;;
2792;SDS011;1404;49.650;8.574;2022-08-03T06:30:35;10.83;;;6.17;;
2792;SDS011;1404;49.650;8.574;2022-08-03T06:33:01;6.03;;;4.90;;
2792;SDS011;1404;49.650;8.574;2022-08-03T06:35:27;9.90;;;5.00;;
2792;SDS011;1404;49.650;8.574;2022-08-03T06:37:53;7.03;;;5.50;;
2792;SDS011;1404;49.650;8.574;2022-08-03T06:40:20;8.83;;;5.40;;
2792;SDS011;1404;49.650;8.574;2022-08-03T06:42:53;6.40;;;4.80;;
2792;SDS011;1404;49.650;8.574;2022-08-03T06:45:19;7.30;;;4.10;;
2792;SDS011;1404;49.650;8.574;2022-08-03T06:47:45;4.53;;;4.10;;
2792;SDS011;1404;49.650;8.574;2022-08-03T06:50:11;7.63;;;4.50;;
2792;SDS011;1404;49.650;8.574;2022-08-03T06:52:37;10.37;;;4.10;;
2792;SDS011;1404;49.650;8.574;2022-08-03T06:55:04;5.50;;;4.30;;
2792;SDS011;1404;49.650;8.574;2022-08-03T06:57:31;7.67;;;3.97;;
2792;SDS011;1404;49.650;8.574;2022-08-03T06:59:57;5.23;;;4.20;;
2792;SDS011;1404;49.650;8.574;2022-08-03T07:02:27;4.90;;;4.40;;
2792;SDS011;1404;49.650;8.574;2022-08-03T07:04:54;5.97;;;4.03;;
2792;SDS011;1404;49.650;8.574;2022-08-03T07:07:20;5.70;;;4.57;;
2792;SDS011;1404;49.650;8.574;2022-08-03T07:09:46;10.63;;;4.17;;
2792;SDS011;1404;49.650;8.574;2022-08-03T07:12:12;5.33;;;4.17;;
2792;SDS011;1404;49.650;8.574;2022-08-03T07:14:38;4.40;;;4.00;;
2792;SDS011;1404;49.650;8.574;2022-08-03T07:17:04;7.57;;;3.33;;
2792;SDS011;1404;49.650;8.574;2022-08-03T07:19:30;3.27;;;3.07;;
2792;SDS011;1404;49.650;8.574;2022-08-03T07:21:56;4.30;;;3.90;;
2792;SDS011;1404;49.650;8.574;2022-08-03T07:24:24;7.23;;;3.93;;
2792;SDS011;1404;49.650;8.574;2022-08-03T07:26:53;3.30;;;2.80;;
2792;SDS011;1404;49.650;8.574;2022-08-03T07:29:19;3.43;;;3.07;;
2792;SDS011;1404;49.650;8.574;2022-08-03T07:31:45;5.30;;;3.30;;
2792;SDS011;1404;49.650;8.574;2022-08-03T07:34:11;11.63;;;4.23;;
2792;SDS011;1404;49.650;8.574;2022-08-03T07:36:37;4.50;;;3.50;;
2792;SDS011;1404;49.650;8.574;2022-08-03T07:39:03;4.30;;;4.00;;
2792;SDS011;1404;49.650;8.574;2022-08-03T07:41:30;3.67;;;3.37;;
2792;SDS011;1404;49.650;8.574;2022-08-03T07:43:56;8.53;;;4.07;;
2792;SDS011;1404;49.650;8.574;2022-08-03T07:46:22;4.07;;;3.40;;
2792;SDS011;1404;49.650;8.574;2022-08-03T07:48:48;3.00;;;2.80;;
2792;SDS011;1404;49.650;8.574;2022-08-03T07:51:14;7.33;;;2.90;;
2792;SDS011;1404;49.650;8.574;2022-08-03T07:53:40;4.77;;;2.90;;
2792;SDS011;1404;49.650;8.574;2022-08-03T07:56:06;2.87;;;2.63;;
2792;SDS011;1404;49.650;8.574;2022-08-03T07:58:33;8.07;;;2.70;;
2792;SDS011;1404;49.650;8.574;2022-08-03T08:00:59;3.00;;;2.80;;
2792;SDS011;1404;49.650;8.574;2022-08-03T08:03:25;3.50;;;3.20;;
2792;SDS011;1404;49.650;8.574;2022-08-03T08:05:52;5.33;;;2.40;;
2792;SDS011;1404;49.650;8.574;2022-08-03T08:08:18;4.13;;;2.77;;
2792;SDS011;1404;49.650;8.574;2022-08-03T08:10:44;4.70;;;3.10;;
2792;SDS011;1404;49.650;8.574;2022-08-03T08:13:10;7.80;;;2.67;;
2792;SDS011;1404;49.650;8.574;2022-08-03T08:15:36;5.03;;;3.10;;
2792;SDS011;1404;49.650;8.574;2022-08-03T08:18:02;5.50;;;3.70;;
2792;SDS011;1404;49.650;8.574;2022-08-03T08:20:30;7.03;;;3.07;;
2792;SDS011;1404;49.650;8.574;2022-08-03T08:22:58;3.87;;;2.97;;
2792;SDS011;1404;49.650;8.574;2022-08-03T08:25:24;3.20;;;2.80;;
2792;SDS011;1404;49.650;8.574;2022-08-03T08:27:50;5.33;;;3.63;;
2792;SDS011;1404;49.650;8.574;2022-08-03T08:30:17;5.07;;;3.30;;
2792;SDS011;1404;49.650;8.574;2022-08-03T08:32:45;3.67;;;3.43;;
2792;SDS011;1404;49.650;8.574;2022-08-03T08:35:11;3.43;;;3.13;;
2792;SDS011;1404;49.650;8.574;2022-08-03T08:37:37;6.33;;;3.07;;
2792;SDS011;1404;49.650;8.574;2022-08-03T08:40:04;2.90;;;2.70;;
2792;SDS011;1404;49.650;8.574;2022-08-03T08:42:31;3.03;;;2.43;;
2792;SDS011;1404;49.650;8.574;2022-08-03T08:44:59;3.30;;;3.03;;
2792;SDS011;1404;49.650;8.574;2022-08-03T08:47:28;6.10;;;2.83;;
2792;SDS011;1404;49.650;8.574;2022-08-03T08:49:54;2.70;;;2.50;;
2792;SDS011;1404;49.650;8.574;2022-08-03T08:52:23;4.70;;;2.57;;
2792;SDS011;1404;49.650;8.574;2022-08-03T08:54:49;2.83;;;2.63;;
2792;SDS011;1404;49.650;8.574;2022-08-03T08:57:16;2.93;;;2.57;;
2792;SDS011;1404;49.650;8.574;2022-08-03T08:59:43;2.67;;;2.37;;
2792;SDS011;1404;49.650;8.574;2022-08-03T09:02:09;5.70;;;2.93;;
2792;SDS011;1404;49.650;8.574;2022-08-03T09:04:36;2.90;;;2.70;;
2792;SDS011;1404;49.650;8.574;2022-08-03T09:07:03;2.83;;;2.53;;
2792;SDS011;1404;49.650;8.574;2022-08-03T09:09:30;2.17;;;2.07;;
2792;SDS011;1404;49.650;8.574;2022-08-03T09:11:56;4.50;;;2.90;;
2792;SDS011;1404;49.650;8.574;2022-08-03T09:14:22;8.13;;;4.00;;
2792;SDS011;1404;49.650;8.574;2022-08-03T09:16:55;3.00;;;2.80;;
2792;SDS011;1404;49.650;8.574;2022-08-03T09:19:23;2.60;;;2.40;;
2792;SDS011;1404;49.650;8.574;2022-08-03T09:22:05;2.83;;;2.17;;
2792;SDS011;1404;49.650;8.574;2022-08-03T09:24:32;2.60;;;2.40;;
2792;SDS011;1404;49.650;8.574;2022-08-03T09:26:58;3.00;;;2.40;;
2792;SDS011;1404;49.650;8.574;2022-08-03T09:29:24;2.50;;;2.30;;
2792;SDS011;1404;49.650;8.574;2022-08-03T09:31:58;2.80;;;2.30;;
2792;SDS011;1404;49.650;8.574;2022-08-03T09:34:24;2.80;;;2.60;;
2792;SDS011;1404;49.650;8.574;2022-08-03T09:36:52;4.93;;;2.57;;
2792;SDS011;1404;49.650;8.574;2022-08-03T09:42:03;3.10;;;2.90;;
2792;SDS011;1404;49.650;8.574;2022-08-03T09:44:39;2.53;;;2.33;;
2792;SDS011;1404;49.650;8.574;2022-08-03T09:47:08;4.33;;;2.50;;
2792;SDS011;1404;49.650;8.574;2022-08-03T09:49:38;9.73;;;2.63;;
2792;SDS011;1404;49.650;8.574;2022-08-03T09:52:15;2.70;;;2.50;;
2792;SDS011;1404;49.650;8.574;2022-08-03T09:54:42;4.17;;;2.67;;
2792;SDS011;1404;49.650;8.574;2022-08-03T09:57:18;5.80;;;2.77;;
2792;SDS011;1404;49.650;8.574;2022-08-03T09:59:46;4.00;;;2.43;;
2792;SDS011;1404;49.650;8.574;2022-08-03T10:02:22;2.77;;;2.57;;
2792;SDS011;1404;49.650;8.574;2022-08-03T10:04:49;2.93;;;2.60;;
2792;SDS011;1404;49.650;8.574;2022-08-03T10:07:17;3.03;;;2.80;;
2792;SDS011;1404;49.650;8.574;2022-08-03T10:09:53;6.60;;;2.67;;
2792;SDS011;1404;49.650;8.574;2022-08-03T10:12:19;2.60;;;2.40;;
2792;SDS011;1404;49.650;8.574;2022-08-03T10:14:45;2.07;;;1.97;;
2792;SDS011;1404;49.650;8.574;2022-08-03T10:17:12;2.93;;;2.73;;
2792;SDS011;1404;49.650;8.574;2022-08-03T10:19:38;2.23;;;2.03;;
2792;SDS011;1404;49.650;8.574;2022-08-03T10:25:04;3.43;;;3.13;;
2792;SDS011;1404;49.650;8.574;2022-08-03T10:27:41;5.83;;;2.70;;
2792;SDS011;1404;49.650;8.574;2022-08-03T10:30:08;3.60;;;2.50;;
2792;SDS011;1404;49.650;8.574;2022-08-03T10:32:48;5.07;;;2.40;;
2792;SDS011;1404;49.650;8.574;2022-08-03T10:35:18;5.47;;;3.33;;
2792;SDS011;1404;49.650;8.574;2022-08-03T10:37:57;5.10;;;2.40;;
2792;SDS011;1404;49.650;8.574;2022-08-03T10:40:25;3.30;;;3.00;;
2792;SDS011;1404;49.650;8.574;2022-08-03T10:42:53;2.80;;;2.60;;
2792;SDS011;1404;49.650;8.574;2022-08-03T10:45:22;2.93;;;2.47;;
2792;SDS011;1404;49.650;8.574;2022-08-03T10:47:49;4.90;;;2.53;;
2792;SDS011;1404;49.650;8.574;2022-08-03T10:50:16;4.03;;;2.60;;
2792;SDS011;1404;49.650;8.574;2022-08-03T10:52:59;2.80;;;2.60;;
2792;SDS011;1404;49.650;8.574;2022-08-03T10:55:38;3.47;;;3.17;;
2792;SDS011;1404;49.650;8.574;2022-08-03T10:58:56;2.90;;;2.70;;
2792;SDS011;1404;49.650;8.574;2022-08-03T11:01:15;3.77;;;2.47;;
2792;SDS011;1404;49.650;8.574;2022-08-03T11:06:22;4.97;;;2.63;;
2792;SDS011;1404;49.650;8.574;2022-08-03T11:09:13;3.53;;;3.33;;
2792;SDS011;1404;49.650;8.574;2022-08-03T11:11:36;3.63;;;3.33;;
2792;SDS011;1404;49.650;8.574;2022-08-03T11:14:06;3.03;;;2.83;;
2792;SDS011;1404;49.650;8.574;2022-08-03T11:16:39;7.70;;;2.90;;
2792;SDS011;1404;49.650;8.574;2022-08-03T11:19:09;3.33;;;3.03;;
2792;SDS011;1404;49.650;8.574;2022-08-03T11:24:55;5.93;;;2.97;;
2792;SDS011;1404;49.650;8.574;2022-08-03T11:30:25;3.50;;;3.20;;
2792;SDS011;1404;49.650;8.574;2022-08-03T11:35:08;4.27;;;3.40;;
2792;SDS011;1404;49.650;8.574;2022-08-03T11:37:35;4.50;;;2.40;;
2792;SDS011;1404;49.650;8.574;2022-08-03T11:40:02;3.00;;;2.80;;
2792;SDS011;1404;49.650;8.574;2022-08-03T11:44:58;3.53;;;3.33;;
2792;SDS011;1404;49.650;8.574;2022-08-03T11:47:25;2.57;;;2.47;;
2792;SDS011;1404;49.650;8.574;2022-08-03T11:49:54;2.90;;;2.27;;
2792;SDS011;1404;49.650;8.574;2022-08-03T11:52:23;2.87;;;2.57;;
2792;SDS011;1404;49.650;8.574;2022-08-03T11:54:50;3.13;;;2.83;;
2792;SDS011;1404;49.650;8.574;2022-08-03T11:57:32;2.80;;;2.63;;
2792;SDS011;1404;49.650;8.574;2022-08-03T11:59:58;5.20;;;2.73;;
2792;SDS011;1404;49.650;8.574;2022-08-03T12:02:24;2.60;;;2.50;;
2792;SDS011;1404;49.650;8.574;2022-08-03T12:07:16;3.00;;;2.73;;
2792;SDS011;1404;49.650;8.574;2022-08-03T12:12:27;2.70;;;2.60;;
2792;SDS011;1404;49.650;8.574;2022-08-03T12:14:53;2.67;;;2.43;;
2792;SDS011;1404;49.650;8.574;2022-08-03T12:17:19;2.30;;;2.20;;
2792;SDS011;1404;49.650;8.574;2022-08-03T12:19:45;2.77;;;2.57;;
2792;SDS011;1404;49.650;8.574;2022-08-03T12:22:11;3.40;;;2.20;;
2792;SDS011;1404;49.650;8.574;2022-08-03T12:24:41;3.30;;;2.47;;
2792;SDS011;1404;49.650;8.574;2022-08-03T12:27:07;2.73;;;2.53;;
2792;SDS011;1404;49.650;8.574;2022-08-03T12:29:33;6.47;;;3.00;;
2792;SDS011;1404;49.650;8.574;2022-08-03T12:32:00;2.70;;;2.50;;
2792;SDS011;1404;49.650;8.574;2022-08-03T12:37:11;2.47;;;2.37;;
2792;SDS011;1404;49.650;8.574;2022-08-03T12:39:37;10.40;;;2.60;;
2792;SDS011;1404;49.650;8.574;2022-08-03T12:42:03;2.63;;;2.47;;
2792;SDS011;1404;49.650;8.574;2022-08-03T12:44:33;2.10;;;1.90;;
2792;SDS011;1404;49.650;8.574;2022-08-03T12:46:59;2.43;;;2.33;;
2792;SDS011;1404;49.650;8.574;2022-08-03T12:49:26;8.33;;;2.43;;
2792;SDS011;1404;49.650;8.574;2022-08-03T12:54:20;5.83;;;2.43;;
2792;SDS011;1404;49.650;8.574;2022-08-03T12:57:00;5.43;;;3.20;;
2792;SDS011;1404;49.650;8.574;2022-08-03T12:59:27;2.70;;;2.50;;
2792;SDS011;1404;49.650;8.574;2022-08-03T13:01:53;4.03;;;2.40;;
2792;SDS011;1404;49.650;8.574;2022-08-03T13:04:30;4.20;;;2.93;;
2792;SDS011;1404;49.650;8.574;2022-08-03T13:07:03;3.13;;;2.93;;
2792;SDS011;1404;49.650;8.574;2022-08-03T13:09:29;4.53;;;3.43;;
2792;SDS011;1404;49.650;8.574;2022-08-03T13:14:32;8.83;;;2.37;;
2792;SDS011;1404;49.650;8.574;2022-08-03T13:16:58;2.40;;;2.30;;
2792;SDS011;1404;49.650;8.574;2022-08-03T13:19:24;3.60;;;2.50;;
2792;SDS011;1404;49.650;8.574;2022-08-03T13:21:50;2.90;;;2.70;;
2792;SDS011;1404;49.650;8.574;2022-08-03T13:24:16;3.80;;;3.10;;
2792;SDS011;1404;49.650;8.574;2022-08-03T13:26:43;3.27;;;2.93;;
2792;SDS011;1404;49.650;8.574;2022-08-03T13:29:09;4.17;;;2.97;;
2792;SDS011;1404;49.650;8.574;2022-08-03T13:31:35;9.07;;;3.20;;
2792;SDS011;1404;49.650;8.574;2022-08-03T13:34:01;3.37;;;3.07;;
2792;SDS011;1404;49.650;8.574;2022-08-03T13:36:27;3.43;;;2.80;;
2792;SDS011;1404;49.650;8.574;2022-08-03T13:38:53;3.87;;;2.90;;
2792;SDS011;1404;49.650;8.574;2022-08-03T13:41:19;12.43;;;3.83;;
2792;SDS011;1404;49.650;8.574;2022-08-03T13:43:45;3.30;;;3.10;;
2792;SDS011;1404;49.650;8.574;2022-08-03T13:46:10;2.83;;;2.73;;
2792;SDS011;1404;49.650;8.574;2022-08-03T13:48:36;7.03;;;3.10;;
2792;SDS011;1404;49.650;8.574;2022-08-03T13:51:03;4.27;;;3.70;;
2792;SDS011;1404;49.650;8.574;2022-08-03T13:53:29;5.93;;;3.50;;
2792;SDS011;1404;49.650;8.574;2022-08-03T13:55:55;7.50;;;3.23;;
2792;SDS011;1404;49.650;8.574;2022-08-03T13:58:21;4.77;;;4.00;;
2792;SDS011;1404;49.650;8.574;2022-08-03T14:00:47;3.90;;;3.60;;
2792;SDS011;1404;49.650;8.574;2022-08-03T14:03:13;10.43;;;4.07;;
2792;SDS011;1404;49.650;8.574;2022-08-03T14:05:39;6.83;;;3.57;;
2792;SDS011;1404;49.650;8.574;2022-08-03T14:08:05;6.60;;;3.10;;
2792;SDS011;1404;49.650;8.574;2022-08-03T14:10:35;5.80;;;3.00;;
2792;SDS011;1404;49.650;8.574;2022-08-03T14:13:02;4.27;;;3.87;;
2792;SDS011;1404;49.650;8.574;2022-08-03T14:15:29;2.97;;;2.77;;
2792;SDS011;1404;49.650;8.574;2022-08-03T14:17:55;3.20;;;3.00;;
2792;SDS011;1404;49.650;8.574;2022-08-03T14:20:21;4.27;;;2.80;;
2792;SDS011;1404;49.650;8.574;2022-08-03T14:22:47;4.43;;;2.90;;
2792;SDS011;1404;49.650;8.574;2022-08-03T14:25:13;3.00;;;2.80;;
2792;SDS011;1404;49.650;8.574;2022-08-03T14:27:39;3.83;;;2.40;;
2792;SDS011;1404;49.650;8.574;2022-08-03T14:30:05;2.80;;;2.60;;
2792;SDS011;1404;49.650;8.574;2022-08-03T14:32:31;3.37;;;2.60;;
2792;SDS011;1404;49.650;8.574;2022-08-03T14:34:57;3.43;;;2.80;;
2792;SDS011;1404;49.650;8.574;2022-08-03T14:37:23;3.80;;;2.60;;
2792;SDS011;1404;49.650;8.574;2022-08-03T14:39:49;7.27;;;2.63;;
2792;SDS011;1404;49.650;8.574;2022-08-03T14:42:15;3.00;;;2.50;;
2792;SDS011;1404;49.650;8.574;2022-08-03T14:44:41;2.90;;;2.17;;
2792;SDS011;1404;49.650;8.574;2022-08-03T14:47:07;3.60;;;2.30;;
2792;SDS011;1404;49.650;8.574;2022-08-03T14:49:34;3.70;;;2.97;;
2792;SDS011;1404;49.650;8.574;2022-08-03T14:52:00;2.83;;;2.63;;
2792;SDS011;1404;49.650;8.574;2022-08-03T14:54:26;2.80;;;2.43;;
2792;SDS011;1404;49.650;8.574;2022-08-03T14:56:54;3.53;;;2.33;;
2792;SDS011;1404;49.650;8.574;2022-08-03T14:59:20;4.83;;;2.60;;
2792;SDS011;1404;49.650;8.574;2022-08-03T15:01:46;5.33;;;2.50;;
2792;SDS011;1404;49.650;8.574;2022-08-03T15:04:12;2.70;;;2.33;;
2792;SDS011;1404;49.650;8.574;2022-08-03T15:06:39;4.37;;;2.80;;
2792;SDS011;1404;49.650;8.574;2022-08-03T15:09:05;3.70;;;2.60;;
2792;SDS011;1404;49.650;8.574;2022-08-03T15:11:31;2.83;;;2.63;;
2792;SDS011;1404;49.650;8.574;2022-08-03T15:13:57;4.63;;;4.17;;
2792;SDS011;1404;49.650;8.574;2022-08-03T15:16:23;2.47;;;2.20;;
2792;SDS011;1404;49.650;8.574;2022-08-03T15:18:49;5.30;;;2.37;;
2792;SDS011;1404;49.650;8.574;2022-08-03T15:21:15;2.73;;;2.53;;
2792;SDS011;1404;49.650;8.574;2022-08-03T15:23:41;2.47;;;2.30;;
2792;SDS011;1404;49.650;8.574;2022-08-03T15:26:07;3.23;;;1.90;;
2792;SDS011;1404;49.650;8.574;2022-08-03T15:28:33;10.33;;;2.57;;
2792;SDS011;1404;49.650;8.574;2022-08-03T15:30:59;4.50;;;2.63;;
2792;SDS011;1404;49.650;8.574;2022-08-03T15:33:25;2.57;;;2.37;;
2792;SDS011;1404;49.650;8.574;2022-08-03T15:35:51;2.57;;;1.90;;
2792;SDS011;1404;49.650;8.574;2022-08-03T15:38:17;2.23;;;2.10;;
2792;SDS011;1404;49.650;8.574;2022-08-03T15:40:44;2.40;;;2.20;;
2792;SDS011;1404;49.650;8.574;2022-08-03T15:43:10;2.23;;;1.93;;
2792;SDS011;1404;49.650;8.574;2022-08-03T15:45:36;3.33;;;2.30;;
2792;SDS011;1404;49.650;8.574;2022-08-03T15:48:05;2.60;;;1.63;;
2792;SDS011;1404;49.650;8.574;2022-08-03T15:50:31;2.70;;;2.50;;
2792;SDS011;1404;49.650;8.574;2022-08-03T15:52:57;2.83;;;2.63;;
2792;SDS011;1404;49.650;8.574;2022-08-03T15:55:23;4.00;;;2.00;;
2792;SDS011;1404;49.650;8.574;2022-08-03T15:57:49;3.40;;;2.60;;
2792;SDS011;1404;49.650;8.574;2022-08-03T16:00:15;4.50;;;3.00;;
2792;SDS011;1404;49.650;8.574;2022-08-03T16:02:41;5.53;;;2.83;;
2792;SDS011;1404;49.650;8.574;2022-08-03T16:05:07;2.60;;;2.40;;
2792;SDS011;1404;49.650;8.574;2022-08-03T16:07:33;2.50;;;2.30;;